Time;durP1;ratioP1;P1;durP2;ratioP2;P2;SDS_P1;SDS_P2;PMS_P1;PMS_P2;Temp;Humidity;BMP_temperature;BMP_pressure;BME280_temperature;BME280_humidity;BME280_pressure;Samples;Min_cycle;Max_cycle;Signal;HPM_P1;HPM_P2
2022/12/04 00:02:03;;;;;;;2.80;2.50;;;18.60;68.00;;;;;;4983269;28;20029;-72
2022/12/04 00:04:29;;;;;;;2.50;2.30;;;18.60;68.10;;;;;;4994108;28;20022;-72
2022/12/04 00:06:55;;;;;;;3.05;2.30;;;18.50;68.10;;;;;;4995133;28;20046;-73
2022/12/04 00:09:21;;;;;;;2.38;2.17;;;18.50;68.10;;;;;;4995095;28;20031;-73
2022/12/04 00:11:46;;;;;;;3.33;2.47;;;18.50;68.10;;;;;;4978443;28;20162;-73
2022/12/04 00:14:12;;;;;;;2.40;2.20;;;18.50;68.20;;;;;;4978006;28;20101;-73
2022/12/04 00:16:38;;;;;;;3.08;2.30;;;18.40;68.20;;;;;;4995000;28;20053;-72
2022/12/04 00:19:04;;;;;;;3.03;2.53;;;18.40;68.20;;;;;;4978079;28;20026;-73
2022/12/04 00:21:29;;;;;;;4.05;2.88;;;18.40;68.30;;;;;;4977800;28;20031;-73
2022/12/04 00:23:55;;;;;;;3.67;2.17;;;18.40;68.30;;;;;;4995333;28;20092;-73
2022/12/04 00:26:22;;;;;;;2.75;2.08;;;18.40;68.30;;;;;;4977787;28;20069;-73
2022/12/04 00:28:48;;;;;;;2.60;2.33;;;18.30;68.40;;;;;;4977871;28;20072;-72
2022/12/04 00:31:15;;;;;;;3.72;2.28;;;18.30;68.40;;;;;;4995214;28;20476;-72
2022/12/04 00:33:41;;;;;;;6.00;2.15;;;18.30;68.20;;;;;;4995098;28;20481;-72
2022/12/04 00:36:09;;;;;;;3.05;2.75;;;18.30;68.30;;;;;;4977528;28;20030;-72
2022/12/04 00:38:35;;;;;;;4.03;2.60;;;18.20;68.20;;;;;;4985395;28;20551;-72
2022/12/04 00:41:00;;;;;;;6.05;2.70;;;18.20;68.30;;;;;;4987344;28;20026;-72
2022/12/04 00:43:26;;;;;;;4.13;2.60;;;18.20;68.30;;;;;;4994321;28;20022;-72
2022/12/04 00:45:52;;;;;;;3.03;2.58;;;18.20;68.40;;;;;;4984171;28;20067;-72
2022/12/04 00:48:18;;;;;;;2.72;2.53;;;18.20;68.50;;;;;;4994798;28;20066;-72
2022/12/04 00:50:44;;;;;;;2.50;2.30;;;18.10;68.50;;;;;;4993449;28;20315;-72
2022/12/04 00:53:09;;;;;;;3.95;2.45;;;18.10;68.60;;;;;;4977613;28;20092;-72
2022/12/04 00:55:37;;;;;;;3.17;2.55;;;18.00;68.70;;;;;;4993545;28;20098;-72
2022/12/04 00:58:03;;;;;;;5.10;2.50;;;18.00;69.90;;;;;;4994487;28;20520;-72
2022/12/04 01:00:29;;;;;;;2.78;2.58;;;18.00;69.00;;;;;;4994464;28;20046;-72
2022/12/04 01:02:55;;;;;;;2.85;2.60;;;18.00;69.10;;;;;;4994513;28;20508;-72
2022/12/04 01:05:21;;;;;;;2.50;2.30;;;17.90;69.10;;;;;;4993271;28;20053;-72
2022/12/04 01:07:46;;;;;;;4.95;2.35;;;17.90;70.20;;;;;;4994002;28;20443;-72
2022/12/04 01:10:12;;;;;;;3.08;2.83;;;17.80;69.20;;;;;;4994498;28;20042;-72
2022/12/04 01:12:38;;;;;;;3.47;2.35;;;17.80;69.30;;;;;;4994394;28;20022;-72
2022/12/04 01:15:04;;;;;;;4.32;2.33;;;17.80;70.40;;;;;;4993681;28;20026;-72
2022/12/04 01:17:29;;;;;;;2.92;2.20;;;17.80;69.50;;;;;;4976769;28;20136;-72
2022/12/04 01:19:55;;;;;;;2.50;2.30;;;17.80;69.50;;;;;;4994103;28;20206;-73
2022/12/04 01:22:21;;;;;;;4.38;2.50;;;17.70;69.50;;;;;;4977012;28;20030;-73
2022/12/04 01:24:46;;;;;;;2.75;2.55;;;17.70;69.50;;;;;;4994138;28;20396;-73
2022/12/04 01:27:12;;;;;;;2.47;2.28;;;17.70;69.60;;;;;;4994014;28;20468;-73
2022/12/04 01:29:37;;;;;;;2.65;2.45;;;17.70;69.70;;;;;;4993913;28;20562;-73
2022/12/04 01:32:03;;;;;;;4.88;2.65;;;17.60;69.60;;;;;;4993855;28;20449;-73
2022/12/04 01:34:29;;;;;;;4.03;2.70;;;17.60;69.80;;;;;;4993870;28;20069;-73
2022/12/04 01:36:55;;;;;;;2.97;2.20;;;17.60;69.90;;;;;;4993937;28;20052;-73
2022/12/04 01:39:20;;;;;;;2.67;2.47;;;17.60;70.00;;;;;;4976267;28;20084;-72
2022/12/04 01:41:46;;;;;;;2.47;2.28;;;17.60;70.10;;;;;;4993817;28;20400;-72
2022/12/04 01:44:16;;;;;;;2.70;2.50;;;17.50;70.10;;;;;;4976326;28;20461;-72
2022/12/04 01:46:46;;;;;;;2.83;2.50;;;17.50;70.20;;;;;;4993533;28;20034;-72
2022/12/04 01:49:17;;;;;;;2.92;2.72;;;17.50;70.30;;;;;;4976569;28;20026;-72
2022/12/04 01:51:46;;;;;;;5.15;2.53;;;17.50;70.40;;;;;;4960882;28;20022;-72
2022/12/04 01:54:27;;;;;;;2.58;2.38;;;17.40;70.50;;;;;;4976686;28;20018;-72
2022/12/04 01:57:12;;;;;;;3.17;2.70;;;17.40;70.60;;;;;;4961219;28;20038;-72
2022/12/04 01:59:41;;;;;;;2.70;2.50;;;17.40;70.60;;;;;;4962525;28;20022;-72
2022/12/04 02:02:12;;;;;;;3.45;2.38;;;17.30;70.70;;;;;;4976341;28;20493;-72
2022/12/04 02:04:38;;;;;;;2.80;2.60;;;17.30;70.80;;;;;;4960577;28;20113;-72
2022/12/04 02:07:04;;;;;;;4.85;2.60;;;17.30;70.90;;;;;;4975927;28;20045;-72
2022/12/04 02:09:30;;;;;;;2.92;2.60;;;17.30;71.00;;;;;;4993057;28;20109;-72
2022/12/04 02:11:56;;;;;;;2.70;2.50;;;17.30;71.10;;;;;;4975989;28;20030;-72
2022/12/04 02:14:27;;;;;;;2.55;2.35;;;17.20;71.10;;;;;;4993312;28;20026;-72
2022/12/04 02:16:56;;;;;;;2.92;2.72;;;17.20;71.00;;;;;;4993262;28;20034;-72
2022/12/04 02:19:27;;;;;;;2.85;2.53;;;17.20;71.20;;;;;;4975967;28;20084;-72
2022/12/04 02:21:53;;;;;;;4.68;2.85;;;17.20;71.20;;;;;;4993169;28;20037;-72
2022/12/04 02:24:22;;;;;;;3.28;2.80;;;17.10;71.20;;;;;;4975957;28;20019;-72
2022/12/04 02:26:53;;;;;;;4.10;2.50;;;17.10;71.30;;;;;;4992201;28;20057;-72
2022/12/04 02:29:43;;;;;;;3.35;2.40;;;17.10;71.30;;;;;;4992929;28;20041;-72
2022/12/04 02:32:22;;;;;;;3.10;2.70;;;17.10;71.40;;;;;;4975690;28;20531;-72
2022/12/04 02:35:13;;;;;;;2.53;2.33;;;17.10;71.50;;;;;;4975571;28;20094;-72
2022/12/04 02:37:49;;;;;;;2.97;2.40;;;17.00;71.50;;;;;;4975615;28;20030;-72
2022/12/04 02:40:27;;;;;;;2.50;2.30;;;17.00;71.50;;;;;;4976886;28;20523;-72
2022/12/04 02:43:21;;;;;;;3.47;3.17;;;17.00;71.60;;;;;;4975387;28;20041;-72
2022/12/04 02:45:53;;;;;;;2.80;2.60;;;17.00;71.60;;;;;;4978097;28;20038;-72
2022/12/04 02:48:19;;;;;;;3.22;2.70;;;17.00;71.70;;;;;;4976515;28;20113;-72
2022/12/04 02:50:46;;;;;;;2.78;2.58;;;16.90;71.60;;;;;;4975383;28;20106;-72
2022/12/04 02:53:19;;;;;;;2.83;2.50;;;16.90;71.70;;;;;;4975590;28;20033;-72
2022/12/04 02:55:54;;;;;;;2.45;2.25;;;16.90;71.70;;;;;;4975477;28;20033;-72
2022/12/04 02:58:25;;;;;;;2.65;2.42;;;16.90;71.80;;;;;;4975382;28;20076;-72
2022/12/04 03:00:50;;;;;;;3.50;2.33;;;16.90;72.00;;;;;;4975568;28;20026;-72
2022/12/04 03:03:22;;;;;;;2.80;2.55;;;16.80;71.90;;;;;;4975433;28;20385;-72
2022/12/04 03:05:54;;;;;;;3.65;2.40;;;16.80;71.90;;;;;;4975271;28;20027;-72
2022/12/04 03:08:23;;;;;;;2.88;2.58;;;16.80;72.00;;;;;;4975234;28;20061;-72
2022/12/04 03:10:50;;;;;;;2.90;2.60;;;16.80;72.00;;;;;;4975120;28;20105;-72
2022/12/04 03:13:25;;;;;;;2.78;2.28;;;16.80;72.10;;;;;;4975290;28;20392;-72
2022/12/04 03:15:53;;;;;;;2.80;2.50;;;16.80;72.20;;;;;;4975476;28;20113;-72
2022/12/04 03:18:31;;;;;;;2.55;2.35;;;16.80;72.30;;;;;;4975231;28;20041;-72
2022/12/04 03:21:01;;;;;;;3.55;2.88;;;16.70;72.20;;;;;;4976892;28;20519;-72
2022/12/04 03:23:33;;;;;;;2.45;2.25;;;16.70;72.30;;;;;;4975678;28;20402;-72
2022/12/04 03:26:13;;;;;;;2.58;2.38;;;16.70;72.40;;;;;;4974814;28;20031;-72
2022/12/04 03:28:52;;;;;;;3.13;2.72;;;16.70;72.40;;;;;;4976097;28;20029;-72
2022/12/04 03:31:21;;;;;;;2.80;2.60;;;16.70;72.50;;;;;;4975465;28;20025;-72
2022/12/04 03:33:47;;;;;;;2.60;2.40;;;16.60;72.50;;;;;;4975102;28;20054;-72
2022/12/04 03:36:25;;;;;;;2.70;2.50;;;16.60;72.50;;;;;;4975321;28;20034;-72
2022/12/04 03:38:56;;;;;;;3.17;2.90;;;16.60;72.50;;;;;;4976883;28;20038;-72
2022/12/04 03:41:51;;;;;;;2.60;2.40;;;16.60;72.70;;;;;;4995994;28;20033;-72
2022/12/04 03:44:24;;;;;;;2.70;2.50;;;16.60;72.70;;;;;;4979609;28;20374;-72
2022/12/04 03:47:00;;;;;;;2.83;2.63;;;16.60;72.60;;;;;;4978399;28;20026;-72
2022/12/04 03:49:35;;;;;;;2.78;2.47;;;16.60;72.60;;;;;;4979509;28;20030;-72
2022/12/04 03:52:13;;;;;;;2.65;2.45;;;16.50;72.80;;;;;;4978517;28;20023;-72
2022/12/04 03:55:19;;;;;;;2.70;2.50;;;16.50;72.80;;;;;;4978322;28;20049;-72
2022/12/04 03:57:45;;;;;;;2.40;2.20;;;16.50;72.90;;;;;;4935706;29;20028;-72
2022/12/04 04:00:20;;;;;;;2.80;2.60;;;16.50;73.00;;;;;;4904144;29;20055;-72
2022/12/04 04:03:08;;;;;;;3.78;2.50;;;16.50;73.00;;;;;;4904808;29;20103;-72
2022/12/04 04:05:34;;;;;;;2.70;2.50;;;16.40;73.00;;;;;;4919808;29;20554;-72
2022/12/04 04:08:24;;;;;;;2.60;2.40;;;16.50;73.10;;;;;;4935201;29;20048;-72
2022/12/04 04:10:47;;;;;;;2.63;2.42;;;16.40;73.00;;;;;;4922090;29;20494;-72
2022/12/04 04:24:27;;;;;;;2.33;2.13;;;16.40;73.30;;;;;;4908526;29;20070;-72
2022/12/04 04:26:53;;;;;;;2.40;2.20;;;16.30;73.30;;;;;;4935046;29;20263;-72
2022/12/04 04:29:18;;;;;;;2.45;2.33;;;16.40;73.40;;;;;;4919421;29;20020;-72
2022/12/04 04:31:56;;;;;;;2.47;2.28;;;16.30;73.40;;;;;;4945774;28;20421;-72
2022/12/04 04:34:46;;;;;;;2.88;2.35;;;16.30;73.40;;;;;;4974677;28;20073;-72
2022/12/04 04:37:21;;;;;;;2.42;2.22;;;16.30;73.40;;;;;;4975850;28;20035;-72
2022/12/04 04:39:50;;;;;;;2.63;2.42;;;16.30;73.30;;;;;;4974047;28;20081;-72
2022/12/04 04:42:27;;;;;;;2.45;2.20;;;16.30;73.40;;;;;;4975646;28;20031;-72
2022/12/04 04:45:06;;;;;;;2.78;2.40;;;16.30;73.40;;;;;;4974260;28;20054;-72
2022/12/04 04:48:04;;;;;;;2.45;2.22;;;16.30;73.40;;;;;;4974229;28;20042;-72
2022/12/04 04:50:30;;;;;;;3.92;3.03;;;16.30;73.50;;;;;;4972471;28;20066;-72
2022/12/04 04:52:59;;;;;;;2.70;2.50;;;16.30;73.40;;;;;;4956913;28;20060;-72
2022/12/04 04:55:24;;;;;;;2.85;2.60;;;16.20;73.50;;;;;;4957135;28;20023;-72
2022/12/04 04:57:50;;;;;;;2.47;2.28;;;16.20;73.60;;;;;;4957282;28;20031;-72
2022/12/04 05:00:18;;;;;;;2.70;2.50;;;16.20;73.50;;;;;;4972934;28;20118;-72
2022/12/04 05:02:44;;;;;;;2.88;2.60;;;16.20;73.60;;;;;;4956953;28;20071;-72
2022/12/04 05:05:11;;;;;;;3.55;2.53;;;16.20;73.90;;;;;;4972914;28;20027;-72
2022/12/04 05:07:37;;;;;;;2.58;2.38;;;16.20;73.70;;;;;;4954474;28;20537;-72
2022/12/04 05:10:03;;;;;;;2.60;2.40;;;16.10;73.70;;;;;;4953589;29;20106;-72
2022/12/04 05:12:29;;;;;;;2.60;2.40;;;16.20;73.80;;;;;;4953569;29;20027;-72
2022/12/04 05:14:54;;;;;;;3.08;2.28;;;16.20;73.70;;;;;;4953586;29;20037;-72
2022/12/04 05:17:20;;;;;;;2.53;2.33;;;16.20;73.60;;;;;;4953533;29;20119;-72
2022/12/04 05:19:55;;;;;;;3.17;2.40;;;16.10;73.70;;;;;;4955135;28;20039;-72
2022/12/04 05:22:26;;;;;;;2.35;2.15;;;16.10;73.80;;;;;;4941673;28;20397;-72
2022/12/04 05:24:52;;;;;;;2.40;2.20;;;16.10;73.80;;;;;;4956205;28;20031;-72
2022/12/04 05:27:17;;;;;;;2.28;2.08;;;16.10;73.80;;;;;;4973540;28;20496;-72
2022/12/04 05:29:43;;;;;;;2.75;2.53;;;16.10;73.80;;;;;;4974701;28;20098;-72
2022/12/04 05:32:08;;;;;;;2.63;2.42;;;16.10;73.70;;;;;;4973486;28;20023;-72
2022/12/04 05:34:34;;;;;;;2.63;2.42;;;16.10;73.80;;;;;;4973459;28;20026;-72
2022/12/04 05:37:00;;;;;;;2.42;2.22;;;16.10;73.70;;;;;;4974217;28;20147;-72
2022/12/04 05:39:26;;;;;;;2.42;2.10;;;16.00;73.90;;;;;;4974358;28;20465;-72
2022/12/04 05:41:52;;;;;;;2.67;2.47;;;16.00;73.80;;;;;;4973361;28;20041;-72
2022/12/04 05:44:17;;;;;;;2.50;2.30;;;16.00;73.80;;;;;;4989553;28;20105;-72
2022/12/04 05:46:43;;;;;;;2.40;2.20;;;16.10;74.00;;;;;;4991357;28;20050;-72
2022/12/04 05:49:08;;;;;;;2.50;2.30;;;16.00;73.70;;;;;;4992683;28;20027;-72
2022/12/04 05:51:34;;;;;;;2.28;2.08;;;16.00;73.80;;;;;;4993428;28;20030;-72
2022/12/04 05:54:00;;;;;;;2.50;2.30;;;16.00;74.00;;;;;;4992320;28;20026;-72
2022/12/04 05:56:25;;;;;;;2.67;2.40;;;16.00;73.80;;;;;;4993670;28;20492;-72
2022/12/04 05:58:51;;;;;;;3.38;2.53;;;16.00;74.10;;;;;;4993356;28;20105;-72
2022/12/04 06:01:18;;;;;;;2.53;2.33;;;16.00;75.00;;;;;;4993430;28;20030;-72
2022/12/04 06:03:44;;;;;;;2.92;2.35;;;16.00;74.10;;;;;;4993661;28;20122;-72
2022/12/04 06:06:12;;;;;;;2.50;2.30;;;16.00;74.30;;;;;;4991650;28;20532;-72
2022/12/04 06:08:37;;;;;;;2.20;2.00;;;16.00;74.20;;;;;;4969525;28;20026;-72
2022/12/04 06:11:29;;;;;;;3.13;2.30;;;15.90;74.00;;;;;;4975795;28;20395;-72
2022/12/04 06:13:55;;;;;;;2.47;2.28;;;15.90;74.10;;;;;;4992852;28;20169;-72
2022/12/04 06:16:25;;;;;;;3.42;2.25;;;15.90;74.20;;;;;;4976141;28;20030;-72
2022/12/04 06:18:53;;;;;;;2.80;2.15;;;15.90;74.40;;;;;;4975966;28;20544;-72
2022/12/04 06:21:19;;;;;;;2.70;2.42;;;16.00;74.50;;;;;;4975554;28;20022;-72
2022/12/04 06:23:45;;;;;;;2.40;2.20;;;16.00;74.20;;;;;;4975805;28;20451;-72
2022/12/04 06:26:11;;;;;;;2.40;2.20;;;16.00;74.00;;;;;;4992929;28;20038;-72
2022/12/04 06:28:36;;;;;;;2.40;2.20;;;16.00;73.90;;;;;;4975657;28;20018;-72
2022/12/04 06:31:12;;;;;;;2.60;2.40;;;15.90;74.00;;;;;;4993147;28;20050;-72
2022/12/04 06:33:38;;;;;;;2.67;2.30;;;15.90;74.10;;;;;;4975572;28;20019;-72
2022/12/04 06:36:13;;;;;;;2.30;1.90;;;15.90;74.00;;;;;;4975416;28;20033;-72
2022/12/04 06:38:40;;;;;;;2.30;2.10;;;15.90;74.10;;;;;;4976012;28;20436;-72
2022/12/04 06:41:06;;;;;;;2.50;2.30;;;15.90;74.10;;;;;;4975725;28;20453;-72
2022/12/04 06:43:32;;;;;;;3.05;2.25;;;15.90;74.10;;;;;;4975953;28;20022;-72
2022/12/04 06:46:02;;;;;;;2.08;1.98;;;15.90;74.20;;;;;;4992814;28;20377;-72
2022/12/04 06:48:28;;;;;;;2.50;2.30;;;15.90;74.10;;;;;;4992910;28;20022;-72
2022/12/04 06:51:06;;;;;;;2.00;1.88;;;15.90;74.10;;;;;;4975546;28;20027;-72
2022/12/04 06:53:33;;;;;;;3.30;2.40;;;15.80;74.00;;;;;;4975524;28;20038;-72
2022/12/04 06:56:03;;;;;;;2.70;2.30;;;15.90;74.20;;;;;;4975616;28;20038;-72
2022/12/04 06:58:29;;;;;;;2.40;2.20;;;15.80;74.20;;;;;;4975712;28;20029;-72
2022/12/04 07:00:55;;;;;;;2.15;2.05;;;15.90;74.40;;;;;;4975464;28;20022;-72
2022/12/04 07:03:21;;;;;;;2.70;2.50;;;15.90;74.10;;;;;;4992703;28;20069;-72
2022/12/04 07:05:46;;;;;;;2.13;2.03;;;15.80;74.10;;;;;;4975475;28;20014;-72
2022/12/04 07:08:13;;;;;;;2.78;1.88;;;15.80;74.40;;;;;;4954273;28;20474;-72
2022/12/04 07:10:39;;;;;;;2.67;2.47;;;15.80;74.40;;;;;;4952973;29;20019;-72
2022/12/04 07:13:05;;;;;;;2.40;2.20;;;15.80;74.30;;;;;;4953666;28;20023;-72
2022/12/04 07:15:31;;;;;;;2.28;2.03;;;15.80;74.30;;;;;;4956661;29;20035;-72
2022/12/04 07:17:57;;;;;;;2.47;2.28;;;15.80;74.40;;;;;;4957348;28;20023;-72
2022/12/04 07:20:23;;;;;;;2.88;2.10;;;15.80;74.30;;;;;;4957853;29;20396;-72
2022/12/04 07:22:48;;;;;;;2.42;2.00;;;15.80;74.30;;;;;;4956524;29;20386;-72
2022/12/04 07:25:14;;;;;;;2.38;2.20;;;15.80;74.40;;;;;;4957516;29;20031;-72
2022/12/04 07:27:40;;;;;;;2.05;1.95;;;15.80;74.40;;;;;;4940511;29;20035;-72
2022/12/04 07:30:06;;;;;;;2.00;1.90;;;15.80;74.30;;;;;;4957503;29;20086;-72
2022/12/04 07:32:31;;;;;;;2.35;2.10;;;15.70;74.50;;;;;;4956374;29;20498;-72
2022/12/04 07:34:57;;;;;;;2.00;1.90;;;15.70;74.60;;;;;;4956276;29;20136;-72
2022/12/04 07:37:23;;;;;;;2.03;1.92;;;15.70;74.50;;;;;;4956210;29;20035;-72
2022/12/04 07:39:51;;;;;;;3.30;2.00;;;15.70;74.40;;;;;;4957618;29;20070;-72
2022/12/04 07:42:18;;;;;;;2.58;2.38;;;15.70;74.50;;;;;;4957242;29;20409;-72
2022/12/04 07:44:43;;;;;;;2.20;2.03;;;15.70;74.50;;;;;;4957377;28;20040;-72
2022/12/04 07:47:09;;;;;;;2.03;1.92;;;15.70;74.50;;;;;;4956995;29;20140;-72
2022/12/04 07:49:35;;;;;;;2.40;2.10;;;15.70;74.60;;;;;;4957351;29;20032;-72
2022/12/04 07:52:00;;;;;;;1.95;1.85;;;15.70;74.60;;;;;;4955817;29;20058;-72
2022/12/04 07:54:26;;;;;;;3.67;2.20;;;15.60;74.60;;;;;;4955979;29;20055;-72
2022/12/04 07:56:52;;;;;;;2.20;2.00;;;15.60;74.60;;;;;;4956881;29;20031;-72
2022/12/04 07:59:17;;;;;;;2.40;2.20;;;15.60;74.60;;;;;;4957064;29;20046;-72
2022/12/04 08:01:43;;;;;;;2.63;2.42;;;15.60;74.60;;;;;;4955759;29;20110;-72
2022/12/04 08:04:09;;;;;;;2.33;2.17;;;15.60;74.70;;;;;;4956733;29;20083;-72
2022/12/04 08:06:34;;;;;;;2.30;2.10;;;15.60;74.60;;;;;;4939677;29;20106;-72
2022/12/04 08:09:00;;;;;;;2.30;2.10;;;15.60;74.60;;;;;;4956631;28;20027;-72
2022/12/04 08:11:26;;;;;;;3.85;1.90;;;15.60;74.70;;;;;;4955519;29;20094;-72
2022/12/04 08:13:56;;;;;;;2.15;2.05;;;15.60;74.70;;;;;;4939901;29;20050;-72
2022/12/04 08:16:21;;;;;;;2.17;2.08;;;15.60;74.70;;;;;;4956308;28;20028;-72
2022/12/04 08:18:47;;;;;;;2.22;2.05;;;15.60;74.90;;;;;;4956598;29;20027;-72
2022/12/04 08:21:15;;;;;;;3.35;2.25;;;15.60;75.20;;;;;;4956571;29;20027;-71
2022/12/04 08:23:41;;;;;;;2.42;2.22;;;15.60;74.80;;;;;;4955563;29;20027;-72
2022/12/04 08:26:06;;;;;;;2.20;2.10;;;15.70;74.80;;;;;;4938271;29;20082;-72
2022/12/04 08:28:32;;;;;;;2.78;2.30;;;15.70;74.70;;;;;;4956468;29;20023;-72
2022/12/04 08:31:11;;;;;;;2.50;2.30;;;15.70;74.70;;;;;;4956252;29;20103;-72
2022/12/04 08:33:37;;;;;;;2.63;2.30;;;15.70;74.60;;;;;;4956704;28;20114;-72
2022/12/04 08:36:07;;;;;;;2.70;2.50;;;15.60;74.70;;;;;;4955185;29;20107;-72
2022/12/04 08:38:33;;;;;;;2.60;2.40;;;15.60;74.70;;;;;;4955129;29;20032;-72
2022/12/04 08:41:00;;;;;;;2.30;2.10;;;15.70;74.80;;;;;;4955090;29;20031;-72
2022/12/04 08:43:25;;;;;;;2.20;2.10;;;15.60;74.80;;;;;;4955135;28;20559;-72
2022/12/04 08:46:02;;;;;;;2.45;2.25;;;15.60;74.90;;;;;;4956180;29;20094;-72
2022/12/04 08:48:28;;;;;;;2.60;2.38;;;15.60;75.00;;;;;;4956186;28;20079;-72
2022/12/04 08:50:53;;;;;;;2.38;2.10;;;15.60;75.00;;;;;;4954982;29;20035;-72
2022/12/04 08:53:19;;;;;;;2.80;2.03;;;15.60;74.90;;;;;;4954815;29;20070;-72
2022/12/04 08:55:45;;;;;;;2.50;2.30;;;15.60;75.00;;;;;;4954978;29;20375;-72
2022/12/04 08:58:10;;;;;;;2.42;2.25;;;15.60;75.10;;;;;;4954669;29;20062;-72
2022/12/04 09:00:36;;;;;;;2.50;2.30;;;15.50;75.00;;;;;;4955719;29;20101;-72
2022/12/04 09:03:02;;;;;;;2.53;2.33;;;15.50;75.10;;;;;;4955928;29;20042;-72
2022/12/04 09:05:28;;;;;;;2.38;2.17;;;15.50;75.10;;;;;;4955621;29;20023;-71
2022/12/04 09:07:54;;;;;;;2.78;2.25;;;15.50;75.00;;;;;;4985652;28;20416;-72
2022/12/04 09:10:20;;;;;;;2.55;2.38;;;15.50;75.10;;;;;;4976939;28;20041;-71
2022/12/04 09:12:45;;;;;;;3.53;2.40;;;15.50;75.10;;;;;;4976970;28;20029;-71
2022/12/04 09:15:11;;;;;;;2.50;2.30;;;15.50;75.10;;;;;;4976928;28;20034;-71
2022/12/04 09:17:37;;;;;;;2.35;2.15;;;15.50;75.20;;;;;;4994494;28;20026;-72
2022/12/04 09:20:03;;;;;;;2.38;2.25;;;15.50;75.20;;;;;;4994226;28;20045;-72
2022/12/04 09:22:29;;;;;;;2.40;2.20;;;15.50;75.20;;;;;;4976884;28;20030;-72
2022/12/04 09:24:55;;;;;;;2.50;2.30;;;15.50;75.20;;;;;;4994178;28;20026;-72
2022/12/04 09:27:20;;;;;;;3.25;2.15;;;15.50;75.20;;;;;;4993823;28;20382;-72
2022/12/04 09:29:46;;;;;;;3.33;2.53;;;15.50;75.20;;;;;;4976690;28;20030;-72
2022/12/04 09:32:12;;;;;;;2.30;2.10;;;15.50;75.30;;;;;;4993966;28;20026;-72
2022/12/04 09:34:37;;;;;;;2.30;2.00;;;15.50;75.20;;;;;;4994033;28;20105;-72
2022/12/04 09:37:03;;;;;;;2.08;1.88;;;15.50;75.30;;;;;;4993599;28;20026;-72
2022/12/04 09:39:29;;;;;;;2.85;2.15;;;15.40;75.20;;;;;;4993877;28;20030;-72
2022/12/04 09:42:04;;;;;;;2.47;2.28;;;15.50;75.20;;;;;;4976572;28;20033;-72
2022/12/04 09:44:52;;;;;;;2.13;2.03;;;15.40;75.20;;;;;;4977051;28;20476;-72
2022/12/04 09:47:42;;;;;;;3.53;2.50;;;15.40;75.30;;;;;;4976316;28;20018;-72
2022/12/04 09:50:17;;;;;;;3.30;2.83;;;15.40;75.20;;;;;;4979295;28;20049;-72
2022/12/04 09:52:54;;;;;;;2.30;2.03;;;15.40;75.30;;;;;;4993629;28;20030;-72
2022/12/04 09:55:55;;;;;;;4.20;2.47;;;15.40;75.30;;;;;;4977472;28;20018;-72
2022/12/04 09:58:22;;;;;;;2.78;2.10;;;15.40;75.70;;;;;;4978677;28;20023;-72
2022/12/04 10:00:49;;;;;;;3.75;2.38;;;15.40;75.30;;;;;;4976237;28;20026;-72
2022/12/04 10:03:17;;;;;;;2.10;2.00;;;15.40;75.30;;;;;;4976060;28;20424;-72
2022/12/04 10:05:59;;;;;;;3.08;2.40;;;15.40;75.30;;;;;;4976476;28;20053;-72
2022/12/04 10:08:39;;;;;;;2.50;2.30;;;15.40;75.40;;;;;;4975676;28;20440;-72
2022/12/04 10:11:37;;;;;;;2.42;2.30;;;15.40;75.40;;;;;;4976136;28;20105;-72
2022/12/04 10:14:21;;;;;;;3.38;2.20;;;15.40;75.40;;;;;;4980193;28;20045;-71
2022/12/04 10:17:24;;;;;;;2.47;2.28;;;15.40;75.50;;;;;;4993309;28;20493;-71
2022/12/04 10:20:39;;;;;;;2.28;2.08;;;15.40;75.50;;;;;;4993222;28;20092;-71
2022/12/04 10:23:29;;;;;;;2.75;2.15;;;15.40;75.50;;;;;;4933224;29;20077;-72
2022/12/04 10:25:55;;;;;;;3.30;2.40;;;15.30;75.50;;;;;;4933053;29;20047;-72
2022/12/04 10:28:23;;;;;;;2.15;1.95;;;15.40;75.50;;;;;;4933187;29;20038;-72
2022/12/04 10:30:49;;;;;;;2.60;2.38;;;15.30;75.50;;;;;;4933078;29;20032;-72
2022/12/04 10:33:23;;;;;;;2.67;2.47;;;15.30;75.50;;;;;;4901473;29;20031;-72
2022/12/04 10:35:53;;;;;;;2.58;2.38;;;15.30;75.50;;;;;;4918465;29;20027;-72
2022/12/04 10:38:54;;;;;;;2.40;2.20;;;15.40;75.50;;;;;;4902483;29;20035;-72
2022/12/04 10:41:23;;;;;;;2.65;2.33;;;15.30;75.50;;;;;;4876435;29;20070;-72
2022/12/04 10:43:49;;;;;;;2.47;2.28;;;15.30;75.50;;;;;;4876523;29;20044;-72
2022/12/04 10:46:18;;;;;;;2.38;2.20;;;15.30;75.50;;;;;;4860885;29;20048;-72
2022/12/04 10:48:45;;;;;;;2.20;2.00;;;15.30;75.60;;;;;;4878219;29;20037;-72
2022/12/04 10:51:18;;;;;;;2.10;2.00;;;15.30;75.50;;;;;;4880575;29;20097;-72
2022/12/04 10:53:44;;;;;;;2.47;2.28;;;15.30;75.50;;;;;;4865130;29;20134;-72
2022/12/04 10:56:12;;;;;;;2.38;2.20;;;15.30;75.60;;;;;;4849319;29;20097;-72
2022/12/04 10:58:38;;;;;;;2.38;2.17;;;15.30;75.60;;;;;;4872017;29;20040;-72
2022/12/04 11:01:06;;;;;;;2.75;2.40;;;15.30;75.60;;;;;;4902264;29;20036;-72
2022/12/04 11:03:31;;;;;;;2.35;2.15;;;15.30;75.60;;;;;;4902118;29;20492;-72
2022/12/04 11:05:59;;;;;;;2.30;2.15;;;15.30;75.60;;;;;;4902027;29;20087;-72
2022/12/04 11:08:27;;;;;;;3.05;2.40;;;15.30;75.60;;;;;;4901825;29;20055;-72
2022/12/04 11:11:12;;;;;;;2.17;2.08;;;15.30;75.60;;;;;;4901974;29;20051;-72
2022/12/04 11:13:38;;;;;;;2.33;2.10;;;15.30;75.60;;;;;;4902312;29;20079;-72
2022/12/04 11:16:05;;;;;;;2.22;2.03;;;15.30;75.60;;;;;;4965084;28;20041;-72
2022/12/04 11:18:45;;;;;;;2.38;2.20;;;15.30;75.60;;;;;;4971285;28;20105;-72
2022/12/04 11:21:15;;;;;;;2.40;2.20;;;15.30;75.60;;;;;;4959988;28;20072;-72
2022/12/04 11:23:42;;;;;;;2.45;2.25;;;15.20;75.50;;;;;;4976704;28;20401;-72
2022/12/04 11:26:08;;;;;;;2.25;2.15;;;15.20;75.60;;;;;;4943920;28;20019;-72
2022/12/04 11:28:33;;;;;;;2.58;2.38;;;15.20;75.60;;;;;;4943754;28;20027;-72
2022/12/04 11:31:00;;;;;;;2.40;2.20;;;15.20;75.60;;;;;;4959592;28;20030;-72
2022/12/04 11:33:52;;;;;;;2.20;2.10;;;15.20;75.60;;;;;;4943735;28;20117;-72
2022/12/04 11:36:22;;;;;;;2.70;2.50;;;15.30;75.70;;;;;;4966206;28;20038;-72
2022/12/04 11:38:48;;;;;;;2.50;2.30;;;15.20;75.60;;;;;;4959094;28;20370;-71
2022/12/04 11:41:26;;;;;;;3.20;2.47;;;15.20;75.70;;;;;;4975633;28;20025;-71
2022/12/04 11:43:52;;;;;;;2.42;2.22;;;15.20;75.60;;;;;;4976858;28;20031;-71
2022/12/04 11:46:22;;;;;;;2.50;2.30;;;15.20;75.70;;;;;;4994712;28;20014;-70
2022/12/04 11:48:48;;;;;;;2.50;2.30;;;15.20;75.60;;;;;;4970166;28;20136;-71
2022/12/04 11:51:33;;;;;;;2.50;2.30;;;15.20;75.60;;;;;;4995070;28;20496;-71
2022/12/04 11:54:05;;;;;;;2.50;2.30;;;15.20;75.70;;;;;;4995147;28;20035;-72
2022/12/04 11:56:36;;;;;;;2.50;2.30;;;15.20;75.70;;;;;;4996360;28;20109;-71
2022/12/04 11:59:33;;;;;;;2.88;2.20;;;15.20;75.80;;;;;;4979186;28;20105;-71
2022/12/04 12:02:34;;;;;;;2.50;2.30;;;15.20;75.70;;;;;;4996037;28;20065;-71
2022/12/04 12:05:34;;;;;;;2.78;2.45;;;15.20;75.80;;;;;;4936043;29;20043;-71
2022/12/04 12:08:30;;;;;;;2.00;1.90;;;15.20;75.80;;;;;;4928501;29;20040;-72
2022/12/04 12:10:56;;;;;;;2.50;2.30;;;15.20;75.80;;;;;;4917171;29;20059;-71
2022/12/04 12:13:29;;;;;;;2.47;2.28;;;15.20;75.80;;;;;;4916857;29;20066;-71
2022/12/04 12:16:01;;;;;;;2.78;2.33;;;15.20;75.80;;;;;;4901862;29;20040;-71
2022/12/04 12:18:42;;;;;;;2.53;2.33;;;15.20;75.90;;;;;;4901481;29;20056;-71
2022/12/04 12:21:34;;;;;;;2.63;2.42;;;15.20;75.80;;;;;;4916862;29;20115;-71
2022/12/04 12:24:18;;;;;;;5.68;2.28;;;15.20;75.80;;;;;;4896724;29;20040;-72
2022/12/04 12:26:56;;;;;;;3.47;3.17;;;15.20;75.90;;;;;;4893921;29;20036;-72
2022/12/04 12:29:36;;;;;;;4.40;3.70;;;15.20;75.80;;;;;;4880680;29;20037;-72
2022/12/04 12:32:21;;;;;;;3.67;2.83;;;15.10;75.60;;;;;;4878766;29;20127;-72
2022/12/04 12:34:46;;;;;;;3.22;2.95;;;15.20;75.60;;;;;;4895784;29;20496;-72
2022/12/04 12:37:21;;;;;;;3.35;3.05;;;15.10;75.40;;;;;;4895634;29;20029;-73
2022/12/04 12:40:09;;;;;;;3.53;3.22;;;15.10;75.30;;;;;;4880478;29;20032;-73
2022/12/04 12:42:43;;;;;;;3.75;3.45;;;15.10;75.10;;;;;;4970554;28;20552;-73
2022/12/04 12:45:28;;;;;;;3.75;3.42;;;15.10;75.10;;;;;;4940397;28;20034;-73
2022/12/04 12:47:55;;;;;;;4.30;3.97;;;15.10;75.00;;;;;;4956445;28;20529;-73
2022/12/04 12:50:27;;;;;;;4.60;3.75;;;15.10;74.70;;;;;;4939915;28;20026;-73
2022/12/04 12:53:06;;;;;;;3.72;3.42;;;15.10;74.60;;;;;;4956137;28;20062;-73
2022/12/04 12:55:34;;;;;;;3.67;3.38;;;15.10;74.70;;;;;;4954093;28;20061;-73
2022/12/04 12:58:04;;;;;;;3.80;3.50;;;15.10;74.60;;;;;;4955802;28;20031;-73
2022/12/04 13:00:30;;;;;;;4.95;3.70;;;15.10;74.60;;;;;;4961858;28;20058;-73
2022/12/04 13:03:05;;;;;;;4.75;4.30;;;15.10;74.70;;;;;;4975931;28;20054;-73
2022/12/04 13:05:40;;;;;;;4.65;4.25;;;15.10;74.70;;;;;;4991415;28;20014;-73
2022/12/04 13:08:16;;;;;;;4.38;3.97;;;15.10;74.80;;;;;;4973587;28;20082;-73
2022/12/04 13:11:06;;;;;;;4.20;3.75;;;15.10;74.80;;;;;;4975958;28;20019;-73
2022/12/04 13:13:33;;;;;;;4.63;4.15;;;15.00;74.60;;;;;;4978600;28;20102;-73
2022/12/04 13:16:03;;;;;;;4.00;3.63;;;15.10;74.80;;;;;;4958529;28;20026;-73
2022/12/04 13:18:31;;;;;;;4.50;4.10;;;15.10;74.90;;;;;;4973725;28;20030;-73